Nearby METAR Reports

 

KBJC - Broomfield/Jeffc, Colorado, USA
Distance from station: NNW 11mi, 17km
Updated: 07/17/2018 8:45pm
Partly cloudy
Partly cloudy
 Wind from varies
Wind: varies 3 mph , 6 km/h
Temperature: 73°F , 23°C
Dew Point: 57°F , 14°C
Humidity: 57%
Barometer: 30.21 inHg , 1023 hPa
Clouds: Partly cloudy
Visibility: 30 miles , 48 km
Cloud details: Partly cloudy 12000 ft
2018/07/18 02:45 KBJC 180245Z VRB03KT 30SM SCT120 23/14 A3021
KBKF - Buckley Angb/Den, Colorado, USA
Distance from station: E 16mi, 25km
Updated: 07/17/2018 8:58pm
Few Clouds
Few Clouds
 Wind from S
Wind: S 9 mph , 15 km/h
Temperature: 70°F , 21°C
Dew Point: 54°F , 12°C
Humidity: 57%
Barometer: 30.21 inHg , 1023 hPa
Clouds: Few Clouds
Visibility: 10 miles , 16 km
Cloud details: Few Clouds 12000 ft
Few Clouds 20000 ft
2018/07/18 02:58 KBKF 180258Z 17008KT 10SM FEW120 FEW200 21/12 A3021 RMK AO2A SLP160 T02110122 53001
 
KAPA - Denver/Arapahoe, Colorado, USA
Distance from station: SE 16mi, 26km
Updated: 07/17/2018 8:53pm
Few Clouds
Few Clouds
 Wind from S
Wind: S 14 mph , 22 km/h
Temperature: 70°F , 21°C
Dew Point: 55°F , 13°C
Humidity: 60%
Barometer: 30.22 inHg , 1023.4 hPa
Clouds: Few Clouds
Visibility: 10 miles , 16 km
Cloud details: Few Clouds 12000 ft
Few Clouds 22000 ft
2018/07/18 02:53 KAPA 180253Z 18012KT 10SM FEW120 FEW220 21/13 A3022 RMK AO2 SLP171 T02060133 56004
KEIK - Erie Muni, Colorado, USA
Distance from station: N 18mi, 29km
Updated: 07/17/2018 8:54pm
Clear
Clear
 Wind from SSW
Wind: SSW 3 mph , 6 km/h
Temperature: 70°F , 21°C
Dew Point: 63°F , 17°C
Humidity: 78%
Barometer: 30.20 inHg , 1022.7 hPa
Clouds: Clear
Visibility: 10 miles , 16 km
2018/07/18 02:54 KEIK 180254Z AUTO 21003KT 10SM CLR 21/17 A3020 RMK AO2 LTG DSNT S T02110165
 
KBDU - Boulder Muni, Colorado, USA
Distance from station: NNW 22mi, 35km
Updated: 07/17/2018 8:54pm
Clear
Clear
 Wind from calm
Wind: Calm
Temperature: 73°F , 23°C
Dew Point: 55°F , 13°C
Humidity: 53%
Barometer: 30.16 inHg , 1021.3 hPa
Clouds: Clear
Visibility: 10 miles , 16 km
2018/07/18 02:54 KBDU 180254Z AUTO 00000KT 10SM CLR 23/13 A3016 RMK AO2
KDEN - Denver (dia), Colorado, USA
Distance from station: ENE 22mi, 35km
Updated: 07/17/2018 8:53pm
Mostly cloudy
Mostly cloudy
 Wind from S
Wind: S 10 mph , 17 km/h
Temperature: 73°F , 23°C
Dew Point: 57°F , 14°C
Humidity: 57%
Barometer: 30.19 inHg , 1022.4 hPa
Clouds: Mostly cloudy
Visibility: 10 miles , 16 km
Cloud details: Few Clouds 12000 ft
Few Clouds 16000 ft
Mostly cloudy 22000 ft
2018/07/18 02:53 KDEN 180253Z 19009KT 10SM FEW120 FEW160 BKN220 23/14 A3019 RMK AO2 SLP149 T02280139 53003
 
KFTG - Denver F. Range, Colorado, USA
Distance from station: E 26mi, 42km
Updated: 07/17/2018 8:47pm
Mostly cloudy
Mostly cloudy
 Wind from S
Wind: S 7 mph , 11 km/h
Temperature: 73°F , 23°C
Dew Point: 54°F , 12°C
Humidity: 50%
Barometer: 30.22 inHg , 1023.4 hPa
Clouds: Mostly cloudy
Visibility: 10 miles , 16 km
Cloud details: Partly cloudy 12000 ft
Mostly cloudy 19000 ft
2018/07/18 02:47 KFTG 180247Z 18006KT 10SM SCT120 BKN190 23/12 A3022
KLMO - Longmont/Vbrand, Colorado, USA
Distance from station: NNW 29mi, 47km
Updated: 07/17/2018 8:55pm
Clear
Clear
 Wind from calm
Wind: Calm
Temperature: 77°F , 25°C
Dew Point: 59°F , 15°C
Humidity: 54%
Barometer: 30.17 inHg , 1021.7 hPa
Clouds: Clear
Visibility: 10 miles , 16 km
2018/07/18 02:55 KLMO 180255Z AUTO 00000KT 10SM CLR 25/15 A3017 RMK AO2 T02540154
 
K0CO - Berthoud Pass, Colorado, USA
Distance from station: W 39mi, 62km
Updated: 07/17/2018 8:54pm
Overcast
Overcast
 
Temperature: 50°F , 10°C
Dew Point: 34°F , 1°C
Humidity: 54%
Barometer: 30.74 inHg , 1041 hPa
Clouds: Overcast
Visibility: 10 miles , 16 km
Cloud details: Overcast 7000 ft
2018/07/18 02:54 K0CO 180254Z AUTO 10SM OVC070 10/01 A3074 RMK AO2 LTG DSNT S
KMNH - Monument/Elbert, Colorado, USA
Distance from station: SSE 43mi, 68km
Updated: 07/17/2018 8:48pm
Clear
Clear
 Wind from SSW
Wind: SSW 5 mph , 7 km/h
Temperature: 57°F , 14°C
Dew Point: 50°F , 10°C
Humidity: 77%
Barometer: 30.35 inHg , 1027.8 hPa
Clouds: Clear
Visibility: 10 miles , 16 km
2018/07/18 02:48 KMNH 180248Z AUTO 21004KT 10SM CLR 14/10 A3035 RMK AO2 LTG DSNT E AND SW
 
KFNL - Ft Collins/Lovel, Colorado, USA
Distance from station: N 48mi, 78km
Updated: 07/17/2018 8:56pm
Few Clouds
Few Clouds
 Wind from E
Wind: E 12 mph , 19 km/h
Temperature: 72°F , 22°C
Dew Point: 59°F , 15°C
Humidity: 65%
Barometer: 30.16 inHg , 1021.3 hPa
Clouds: Few Clouds
Visibility: 10 miles , 16 km
Cloud details: Few Clouds 5500 ft
2018/07/18 02:56 KFNL 180256Z AUTO 10010KT 10SM FEW055 22/15 A3016 RMK AO2 SLP155 T02220150 55002